Time;durP1;ratioP1;P1;durP2;ratioP2;P2;SDS_P1;SDS_P2;PMS_P1;PMS_P2;Temp;Humidity;BMP_temperature;BMP_pressure;BME280_temperature;BME280_humidity;BME280_pressure;Samples;Min_cycle;Max_cycle;Signal;HPM_P1;HPM_P2
2022/11/17 00:02:23;;;;;;;32.10;20.27;;;8.50;99.90;;;;;;5102122;27;20054;-73
2022/11/17 00:04:48;;;;;;;29.35;18.85;;;8.50;99.90;;;;;;5089450;28;20044;-76
2022/11/17 00:07:14;;;;;;;24.17;15.93;;;8.50;99.90;;;;;;5079000;27;20039;-76
2022/11/17 00:09:40;;;;;;;32.65;22.98;;;8.50;99.90;;;;;;5096302;28;20081;-74
2022/11/17 00:14:50;;;;;;;23.92;15.45;;;8.50;99.90;;;;;;5106752;27;20058;-73
2022/11/17 00:17:16;;;;;;;27.98;18.88;;;8.50;99.90;;;;;;5103048;27;20407;-73
2022/11/17 00:22:28;;;;;;;29.52;21.25;;;8.50;99.90;;;;;;5117136;27;20511;-72
2022/11/17 00:24:54;;;;;;;28.73;18.10;;;8.50;99.90;;;;;;5115211;27;20402;-75
2022/11/17 00:27:19;;;;;;;24.60;16.25;;;8.60;99.90;;;;;;5114080;27;20118;-74
2022/11/17 00:29:45;;;;;;;28.85;19.80;;;8.60;99.90;;;;;;5094402;28;20417;-74
2022/11/17 00:35:00;;;;;;;25.58;17.63;;;8.50;99.90;;;;;;5101295;27;20054;-73
2022/11/17 00:37:28;;;;;;;23.45;17.05;;;8.50;99.90;;;;;;5133968;27;20039;-75
2022/11/17 00:39:53;;;;;;;23.75;17.42;;;8.50;99.90;;;;;;5114799;27;20143;-74
2022/11/17 00:42:19;;;;;;;20.15;14.52;;;8.50;99.90;;;;;;5113372;28;20487;-72
2022/11/17 00:44:45;;;;;;;23.60;17.33;;;8.60;99.90;;;;;;5082137;27;20075;-74
2022/11/17 00:47:10;;;;;;;21.50;15.25;;;8.50;99.90;;;;;;5108884;28;20384;-74
2022/11/17 00:49:36;;;;;;;19.98;13.55;;;8.60;99.90;;;;;;5089467;28;20044;-74
2022/11/17 00:52:03;;;;;;;19.13;13.43;;;8.50;99.90;;;;;;5082555;27;20047;-74
2022/11/17 00:54:28;;;;;;;19.27;11.95;;;8.50;99.90;;;;;;5112364;28;20050;-75
2022/11/17 00:56:54;;;;;;;19.90;13.27;;;8.50;99.90;;;;;;5112113;27;20126;-75
2022/11/17 00:59:20;;;;;;;22.02;15.70;;;8.50;99.90;;;;;;5115857;27;20121;-75
2022/11/17 01:01:46;;;;;;;21.73;16.38;;;8.50;99.90;;;;;;5079106;28;20043;-74
2022/11/17 01:04:13;;;;;;;22.17;15.73;;;8.60;99.90;;;;;;5115444;27;20491;-76
2022/11/17 01:06:42;;;;;;;17.35;12.27;;;8.50;99.90;;;;;;5134495;27;20087;-73
2022/11/17 01:09:14;;;;;;;19.20;13.32;;;8.50;99.90;;;;;;5110303;28;20386;-76
2022/11/17 01:11:41;;;;;;;15.00;10.30;;;8.50;99.90;;;;;;5079043;28;20079;-75
2022/11/17 01:14:07;;;;;;;15.23;8.43;;;8.70;99.90;;;;;;5095399;28;20061;-73
2022/11/17 01:16:32;;;;;;;21.85;16.52;;;8.50;99.90;;;;;;5105560;28;20464;-74
2022/11/17 01:19:01;;;;;;;21.95;13.43;;;8.50;99.90;;;;;;5091775;28;20047;-75
2022/11/17 01:21:29;;;;;;;19.77;13.50;;;8.60;99.90;;;;;;5104243;28;20043;-74
2022/11/17 01:23:56;;;;;;;19.45;15.43;;;8.50;99.90;;;;;;5095432;27;20051;-73
2022/11/17 01:26:28;;;;;;;22.00;14.35;;;8.60;99.90;;;;;;5099007;28;20164;-73
2022/11/17 01:28:54;;;;;;;20.40;15.68;;;8.50;99.90;;;;;;5115890;28;20047;-75
2022/11/17 01:31:23;;;;;;;16.15;10.20;;;8.50;99.90;;;;;;5098814;28;20121;-75
2022/11/17 01:33:49;;;;;;;20.48;14.63;;;8.60;99.90;;;;;;5115033;28;20095;-73
2022/11/17 01:37:17;;;;;;;20.23;14.85;;;8.50;99.90;;;;;;5115143;27;20122;-74
2022/11/17 01:39:18;;;;;;;20.77;15.00;;;8.50;99.90;;;;;;5114754;27;20062;-71
2022/11/17 01:41:44;;;;;;;17.65;11.18;;;8.50;99.90;;;;;;5101937;28;20039;-72
2022/11/17 01:44:35;;;;;;;22.25;14.95;;;8.60;99.90;;;;;;5115562;28;20054;-74
2022/11/17 01:47:03;;;;;;;16.88;12.70;;;8.50;99.90;;;;;;5107619;28;20039;-73
2022/11/17 01:49:29;;;;;;;15.90;9.68;;;8.60;99.90;;;;;;5092844;27;20391;-72
2022/11/17 01:52:05;;;;;;;18.48;13.52;;;8.60;99.90;;;;;;5103101;27;20480;-72
2022/11/17 01:54:34;;;;;;;20.25;13.30;;;8.50;99.90;;;;;;5119548;27;20049;-73
2022/11/17 01:57:08;;;;;;;13.30;7.18;;;8.50;99.90;;;;;;5119080;27;20039;-72
2022/11/17 01:59:39;;;;;;;20.67;14.98;;;8.60;99.90;;;;;;5119023;27;20042;-73
2022/11/17 02:02:06;;;;;;;18.60;13.15;;;8.50;99.90;;;;;;5116219;27;20056;-74
2022/11/17 02:04:42;;;;;;;16.27;10.38;;;8.50;99.90;;;;;;5070485;28;20039;-74
2022/11/17 02:07:11;;;;;;;17.33;10.50;;;8.50;99.90;;;;;;5101300;27;20047;-76
2022/11/17 02:09:39;;;;;;;19.70;11.55;;;8.60;99.90;;;;;;5102687;27;20364;-73
2022/11/17 02:12:09;;;;;;;17.63;11.73;;;8.60;99.90;;;;;;5115613;28;20123;-77
2022/11/17 02:14:35;;;;;;;19.17;11.90;;;8.60;99.90;;;;;;5098885;28;20479;-73
2022/11/17 02:17:02;;;;;;;19.77;14.23;;;8.60;99.90;;;;;;5098830;28;20081;-73
2022/11/17 02:19:34;;;;;;;19.15;12.88;;;8.50;99.90;;;;;;5114695;28;20494;-73
2022/11/17 02:22:18;;;;;;;20.63;14.63;;;8.50;99.90;;;;;;5095164;27;20054;-74
2022/11/17 02:24:56;;;;;;;20.77;14.98;;;8.50;99.90;;;;;;5089184;27;20047;-72
2022/11/17 02:27:33;;;;;;;19.08;12.57;;;8.50;99.90;;;;;;5118306;27;20453;-74
2022/11/17 02:30:04;;;;;;;19.25;14.65;;;8.50;99.90;;;;;;5107232;27;20054;-73
2022/11/17 02:32:42;;;;;;;17.42;11.30;;;8.50;99.90;;;;;;5119101;27;20122;-74
2022/11/17 02:35:35;;;;;;;21.90;14.52;;;8.50;99.90;;;;;;5108750;28;20050;-71
2022/11/17 02:38:15;;;;;;;20.30;14.23;;;8.50;99.90;;;;;;5101595;27;20050;-74
2022/11/17 02:41:06;;;;;;;19.95;12.82;;;8.50;99.90;;;;;;5098834;28;20035;-73
2022/11/17 02:44:04;;;;;;;18.75;11.77;;;8.50;99.90;;;;;;5088803;27;20100;-74
2022/11/17 02:46:54;;;;;;;19.42;14.23;;;8.50;99.90;;;;;;5099889;27;20519;-74
2022/11/17 02:49:30;;;;;;;13.15;7.63;;;8.40;99.90;;;;;;5097885;28;20048;-76
2022/11/17 02:51:58;;;;;;;24.08;16.80;;;8.40;99.90;;;;;;5112693;28;20048;-73
2022/11/17 02:54:27;;;;;;;23.25;15.85;;;8.40;99.90;;;;;;5091105;27;20086;-73
2022/11/17 02:56:53;;;;;;;22.77;15.18;;;8.40;99.90;;;;;;5103648;27;20066;-75
2022/11/17 02:59:24;;;;;;;21.35;14.88;;;8.40;99.90;;;;;;5092354;28;20051;-74
2022/11/17 03:01:59;;;;;;;19.48;13.13;;;8.40;99.90;;;;;;5098916;27;20121;-75
2022/11/17 03:04:31;;;;;;;19.35;13.65;;;8.40;99.90;;;;;;5108217;28;20491;-76
2022/11/17 03:07:21;;;;;;;22.00;15.15;;;8.30;99.90;;;;;;5098056;28;20441;-73
2022/11/17 03:09:56;;;;;;;19.10;13.73;;;8.30;99.90;;;;;;5110228;28;20055;-75
2022/11/17 03:12:40;;;;;;;18.80;12.60;;;8.30;99.90;;;;;;5116707;27;20440;-75
2022/11/17 03:15:35;;;;;;;19.42;13.45;;;8.30;99.90;;;;;;5111443;28;20039;-76
2022/11/17 03:18:21;;;;;;;21.40;15.20;;;8.30;99.90;;;;;;5096494;28;20051;-75
2022/11/17 03:20:52;;;;;;;16.25;11.70;;;8.20;99.90;;;;;;5098005;28;20107;-75
2022/11/17 03:23:24;;;;;;;18.40;10.93;;;8.20;99.90;;;;;;5111477;28;20497;-80
2022/11/17 03:25:57;;;;;;;16.75;11.82;;;8.20;99.90;;;;;;5097866;28;20048;-75
2022/11/17 03:28:28;;;;;;;12.25;6.13;;;8.20;99.90;;;;;;5115227;27;20043;-76
2022/11/17 03:30:55;;;;;;;17.75;13.30;;;8.20;99.90;;;;;;5118172;27;20092;-74
2022/11/17 03:33:23;;;;;;;18.38;12.27;;;8.20;99.90;;;;;;5114024;27;20463;-74
2022/11/17 03:35:57;;;;;;;18.45;12.18;;;8.20;99.90;;;;;;5080531;28;20101;-76
2022/11/17 03:38:28;;;;;;;16.98;11.43;;;8.10;99.90;;;;;;5097353;28;20076;-76
2022/11/17 03:40:57;;;;;;;20.33;14.05;;;8.10;99.90;;;;;;5097569;28;20048;-75
2022/11/17 03:43:25;;;;;;;18.27;11.80;;;8.10;99.90;;;;;;5091633;28;20054;-77
2022/11/17 03:45:54;;;;;;;19.95;14.23;;;8.10;99.90;;;;;;5115253;27;20118;-77
2022/11/17 03:48:54;;;;;;;16.20;11.38;;;8.10;99.90;;;;;;5116520;27;20055;-81
2022/11/17 03:51:24;;;;;;;16.33;11.00;;;8.10;99.90;;;;;;5102980;27;20057;-75
2022/11/17 03:53:51;;;;;;;17.88;12.82;;;8.10;99.90;;;;;;5089174;28;20051;-76
2022/11/17 03:56:25;;;;;;;13.13;8.00;;;8.10;99.90;;;;;;5097105;27;20051;-73
2022/11/17 03:59:13;;;;;;;17.40;11.43;;;8.10;99.90;;;;;;5097048;28;20489;-77
2022/11/17 04:01:38;;;;;;;17.05;10.30;;;8.00;99.90;;;;;;5110754;28;20115;-78
2022/11/17 04:04:04;;;;;;;15.70;10.55;;;8.10;99.90;;;;;;5086008;28;20074;-78
2022/11/17 04:06:30;;;;;;;17.52;12.63;;;8.00;99.90;;;;;;5096043;27;20448;-78
2022/11/17 04:08:56;;;;;;;16.85;11.02;;;8.00;99.90;;;;;;5117255;27;20043;-78
2022/11/17 04:16:50;;;;;;;13.25;8.98;;;7.90;99.90;;;;;;5102439;27;20050;-75
2022/11/17 04:19:15;;;;;;;12.98;9.65;;;8.00;99.90;;;;;;5115684;27;20055;-74
2022/11/17 04:21:41;;;;;;;14.82;7.68;;;7.90;99.90;;;;;;5080669;27;20044;-74
2022/11/17 04:24:07;;;;;;;18.17;11.52;;;7.90;99.90;;;;;;5079774;28;20048;-79
2022/11/17 04:29:17;;;;;;;15.25;9.52;;;7.90;99.90;;;;;;5114567;28;20051;-80
2022/11/17 04:31:43;;;;;;;18.13;12.73;;;7.80;99.90;;;;;;5093387;27;20061;-79
2022/11/17 04:34:09;;;;;;;14.82;10.15;;;7.80;99.90;;;;;;5115808;27;20039;-78
2022/11/17 04:36:43;;;;;;;15.32;11.32;;;7.80;99.90;;;;;;5079413;28;20043;-79
2022/11/17 04:39:10;;;;;;;12.10;7.80;;;7.80;99.90;;;;;;5097692;27;20421;-78
2022/11/17 04:41:56;;;;;;;13.07;8.85;;;7.80;99.90;;;;;;5099765;27;20104;-77
2022/11/17 04:44:24;;;;;;;13.50;9.68;;;7.80;99.90;;;;;;5084976;27;20036;-83
2022/11/17 04:46:50;;;;;;;14.45;10.48;;;7.70;99.90;;;;;;5087216;28;20592;-76
2022/11/17 04:49:17;;;;;;;16.00;11.63;;;7.70;99.90;;;;;;5106503;28;20044;-81
2022/11/17 04:51:43;;;;;;;13.07;7.97;;;7.60;99.90;;;;;;5079360;28;20138;-76
2022/11/17 04:54:11;;;;;;;13.25;9.70;;;7.60;99.90;;;;;;5111879;27;20039;-84
2022/11/17 04:56:37;;;;;;;13.60;10.13;;;7.60;99.90;;;;;;5116315;27;20038;-82
2022/11/17 04:59:03;;;;;;;13.10;8.77;;;7.60;99.90;;;;;;5112319;28;20055;-80
2022/11/17 05:01:29;;;;;;;11.45;7.88;;;7.60;99.90;;;;;;5112309;28;20031;-74
2022/11/17 05:03:58;;;;;;;12.75;9.52;;;7.60;99.90;;;;;;5115594;27;20046;-76
2022/11/17 05:06:32;;;;;;;11.85;6.22;;;7.90;99.90;;;;;;5111599;28;20575;-80
2022/11/17 05:09:00;;;;;;;10.20;6.53;;;7.60;99.90;;;;;;5078827;28;20475;-78
2022/11/17 05:14:15;;;;;;;13.65;9.82;;;7.60;99.90;;;;;;5117991;27;20509;-73
2022/11/17 05:19:27;;;;;;;12.77;8.82;;;7.50;99.90;;;;;;5096769;28;20086;-75
2022/11/17 05:21:53;;;;;;;13.77;11.23;;;7.50;99.90;;;;;;5099330;27;20048;-80
2022/11/17 05:24:19;;;;;;;14.70;10.82;;;7.50;99.90;;;;;;5113608;27;20095;-82
2022/11/17 05:26:47;;;;;;;14.95;12.07;;;7.50;99.90;;;;;;5102127;28;20437;-80
2022/11/17 05:29:15;;;;;;;14.65;11.63;;;7.40;99.90;;;;;;5116001;28;20561;-76
2022/11/17 05:31:41;;;;;;;14.40;11.18;;;7.40;99.90;;;;;;5110264;28;20096;-77
2022/11/17 05:34:09;;;;;;;12.95;7.97;;;7.50;99.90;;;;;;5105943;28;20155;-77
2022/11/17 05:36:34;;;;;;;13.25;10.05;;;7.50;99.90;;;;;;5098448;28;20095;-76
2022/11/17 05:39:00;;;;;;;12.05;6.40;;;7.40;99.90;;;;;;5112417;28;20051;-76
2022/11/17 05:41:27;;;;;;;14.52;11.48;;;7.40;99.90;;;;;;5096077;28;20158;-79
2022/11/17 05:43:54;;;;;;;15.40;11.95;;;7.40;99.90;;;;;;5112681;28;20047;-83
2022/11/17 05:46:20;;;;;;;11.32;7.90;;;7.30;99.90;;;;;;5085911;28;20031;-78
2022/11/17 05:48:48;;;;;;;12.55;8.38;;;7.30;99.90;;;;;;5102722;28;20050;-77
2022/11/17 05:51:16;;;;;;;10.07;5.50;;;7.30;99.90;;;;;;5105325;28;20122;-76
2022/11/17 05:53:42;;;;;;;11.60;8.07;;;7.30;99.90;;;;;;5103092;28;20124;-77
2022/11/17 05:56:10;;;;;;;16.00;12.07;;;7.30;99.90;;;;;;5105038;28;20475;-75
2022/11/17 05:58:38;;;;;;;10.70;7.35;;;7.20;99.90;;;;;;5123594;28;20047;-79
2022/11/17 06:01:05;;;;;;;15.80;11.80;;;7.20;99.90;;;;;;5110333;28;20043;-76
2022/11/17 06:03:36;;;;;;;12.73;9.98;;;7.20;99.90;;;;;;5107204;28;20112;-76
2022/11/17 06:06:02;;;;;;;9.20;6.47;;;7.20;99.90;;;;;;5114620;28;20483;-76
2022/11/17 06:08:29;;;;;;;13.48;9.68;;;7.30;99.90;;;;;;5094710;28;20047;-75
2022/11/17 06:10:55;;;;;;;10.13;6.93;;;7.20;99.90;;;;;;5105936;28;20075;-77
2022/11/17 06:13:24;;;;;;;11.90;8.52;;;7.20;99.90;;;;;;5088050;28;20115;-81
2022/11/17 06:15:52;;;;;;;12.63;10.00;;;7.20;99.90;;;;;;5100021;28;20096;-77
2022/11/17 06:18:19;;;;;;;10.98;7.55;;;7.20;99.90;;;;;;5099786;28;20104;-72
2022/11/17 06:20:48;;;;;;;10.25;6.80;;;7.20;99.90;;;;;;5094684;28;20117;-78
2022/11/17 06:23:16;;;;;;;8.35;5.25;;;7.20;99.90;;;;;;5097787;28;20578;-75
2022/11/17 06:25:42;;;;;;;10.73;7.88;;;7.10;99.90;;;;;;5109355;28;20055;-75
2022/11/17 06:28:12;;;;;;;12.85;10.07;;;7.10;99.90;;;;;;5085867;28;20059;-77
2022/11/17 06:30:39;;;;;;;12.23;9.50;;;7.10;99.90;;;;;;5107483;28;20120;-75
2022/11/17 06:33:08;;;;;;;10.48;6.65;;;7.10;99.90;;;;;;5078668;28;20040;-75
2022/11/17 06:35:35;;;;;;;10.88;8.43;;;7.10;99.90;;;;;;5105498;28;20050;-76
2022/11/17 06:38:01;;;;;;;12.02;6.18;;;7.10;99.90;;;;;;5112197;27;20092;-75
2022/11/17 06:40:27;;;;;;;9.88;7.10;;;7.20;99.90;;;;;;5095032;27;20043;-74
2022/11/17 06:43:02;;;;;;;10.65;8.35;;;7.10;99.90;;;;;;5116191;27;20047;-76
2022/11/17 06:45:33;;;;;;;12.73;10.07;;;7.10;99.90;;;;;;5109407;27;20168;-74
2022/11/17 06:47:59;;;;;;;9.18;5.55;;;7.00;99.90;;;;;;5099821;28;20119;-77
2022/11/17 06:50:24;;;;;;;11.82;7.80;;;7.10;99.90;;;;;;5117387;27;20119;-74
2022/11/17 06:52:50;;;;;;;12.50;8.35;;;7.10;99.90;;;;;;5109525;28;20046;-72
2022/11/17 06:55:17;;;;;;;11.45;8.32;;;7.10;99.90;;;;;;5097983;28;20054;-81
2022/11/17 06:57:43;;;;;;;9.50;7.03;;;7.10;99.90;;;;;;5097512;27;20040;-72
2022/11/17 07:00:09;;;;;;;10.43;7.10;;;7.10;99.90;;;;;;5124637;27;20054;-74
2022/11/17 07:02:36;;;;;;;9.63;6.18;;;7.10;99.90;;;;;;5102926;27;20096;-73
2022/11/17 07:05:02;;;;;;;8.68;5.00;;;7.10;99.90;;;;;;5100369;27;20133;-76
2022/11/17 07:07:28;;;;;;;11.43;7.30;;;7.10;99.90;;;;;;5105197;28;20058;-72
2022/11/17 07:09:53;;;;;;;10.73;8.02;;;7.20;99.90;;;;;;5116525;27;20035;-75
2022/11/17 07:12:19;;;;;;;9.10;6.18;;;7.10;99.90;;;;;;5118447;27;20043;-76
2022/11/17 07:14:44;;;;;;;9.85;7.50;;;7.10;99.90;;;;;;5078108;27;20044;-74
2022/11/17 07:17:10;;;;;;;9.85;6.47;;;7.20;99.90;;;;;;5106259;27;20446;-74
2022/11/17 07:19:36;;;;;;;9.20;5.97;;;7.20;99.90;;;;;;5113590;27;20059;-75
2022/11/17 07:22:02;;;;;;;8.02;6.22;;;7.20;99.90;;;;;;5117942;27;20051;-80
2022/11/17 07:24:28;;;;;;;9.88;7.40;;;7.20;99.90;;;;;;5106074;27;20036;-75
2022/11/17 07:26:54;;;;;;;8.02;4.40;;;7.10;99.90;;;;;;5086590;27;20076;-78
2022/11/17 07:29:20;;;;;;;8.20;5.38;;;7.10;99.90;;;;;;5077612;28;20136;-79
2022/11/17 07:31:45;;;;;;;8.65;6.05;;;7.20;99.90;;;;;;5102892;27;20050;-76
2022/11/17 07:34:11;;;;;;;7.43;4.35;;;7.10;99.90;;;;;;5096442;28;20044;-76
2022/11/17 07:36:36;;;;;;;9.18;6.13;;;7.20;99.90;;;;;;5094627;27;20044;-78
2022/11/17 07:39:04;;;;;;;9.43;6.63;;;7.10;99.90;;;;;;5118263;27;20048;-78
2022/11/17 07:41:30;;;;;;;8.77;6.25;;;7.10;99.90;;;;;;5099032;27;20050;-72
2022/11/17 07:43:58;;;;;;;9.52;6.57;;;7.10;99.90;;;;;;5104797;28;20036;-74
2022/11/17 07:46:24;;;;;;;9.60;7.22;;;7.10;99.90;;;;;;5090305;27;20052;-75
2022/11/17 07:48:53;;;;;;;9.00;6.68;;;7.10;99.90;;;;;;5128133;27;20046;-77
2022/11/17 07:51:19;;;;;;;7.55;5.15;;;7.10;99.90;;;;;;5090343;28;20465;-77
2022/11/17 07:53:45;;;;;;;9.50;6.93;;;7.10;99.90;;;;;;5111065;27;20118;-78
2022/11/17 07:56:12;;;;;;;8.65;5.57;;;7.20;99.90;;;;;;5093834;27;20522;-74
2022/11/17 07:58:38;;;;;;;8.95;6.50;;;7.10;99.90;;;;;;5113065;27;20046;-75
2022/11/17 08:01:10;;;;;;;10.25;7.30;;;7.10;99.90;;;;;;5098152;27;20054;-73
2022/11/17 08:03:35;;;;;;;7.25;4.20;;;7.00;99.90;;;;;;5104842;28;20036;-77
2022/11/17 08:06:02;;;;;;;10.48;7.80;;;7.20;99.90;;;;;;5094026;27;20127;-74
2022/11/17 08:08:28;;;;;;;7.50;4.22;;;8.00;99.90;;;;;;5094272;28;20652;-75
2022/11/17 08:10:53;;;;;;;10.23;7.18;;;7.20;99.90;;;;;;5075863;27;20051;-75
2022/11/17 08:13:19;;;;;;;9.15;6.05;;;7.10;99.90;;;;;;5114156;28;20092;-73
2022/11/17 08:15:45;;;;;;;11.02;6.85;;;7.10;99.90;;;;;;5127993;27;20478;-76
2022/11/17 08:18:10;;;;;;;7.20;4.13;;;7.10;99.90;;;;;;5098712;27;20238;-77
2022/11/17 08:20:36;;;;;;;10.40;7.40;;;7.10;99.90;;;;;;5079097;28;20138;-76
2022/11/17 08:23:02;;;;;;;10.65;8.95;;;7.20;99.90;;;;;;5099400;27;20538;-80
2022/11/17 08:25:28;;;;;;;8.70;5.47;;;7.30;99.90;;;;;;5106173;28;20040;-75
2022/11/17 08:27:57;;;;;;;9.55;7.55;;;7.20;99.90;;;;;;5096721;27;20126;-74
2022/11/17 08:30:23;;;;;;;9.40;6.63;;;7.10;99.90;;;;;;5116165;27;20084;-80
2022/11/17 08:32:52;;;;;;;11.13;7.28;;;7.10;99.90;;;;;;5100288;27;20479;-78
2022/11/17 08:35:21;;;;;;;12.45;8.68;;;6.40;99.90;;;;;;5082396;28;20044;-74
2022/11/17 08:37:46;;;;;;;10.77;8.95;;;7.20;99.90;;;;;;5096126;28;20047;-74
2022/11/17 08:40:13;;;;;;;11.00;7.13;;;7.10;99.90;;;;;;5095442;28;20055;-77
2022/11/17 08:42:39;;;;;;;6.60;4.15;;;7.10;99.90;;;;;;5096294;28;20072;-72
2022/11/17 08:45:06;;;;;;;11.52;8.73;;;7.20;99.90;;;;;;5113476;27;20047;-74
2022/11/17 08:47:32;;;;;;;11.02;7.82;;;7.20;99.90;;;;;;5089710;28;20054;-77
2022/11/17 08:49:57;;;;;;;7.07;4.75;;;7.20;99.90;;;;;;5108500;27;20047;-75
2022/11/17 08:52:23;;;;;;;11.45;8.65;;;7.20;99.90;;;;;;5113825;27;20123;-75
2022/11/17 08:54:51;;;;;;;12.27;9.90;;;7.20;99.90;;;;;;5112946;27;20051;-76
2022/11/17 08:57:16;;;;;;;9.35;6.93;;;7.10;99.90;;;;;;5094684;28;20081;-71
2022/11/17 08:59:42;;;;;;;11.95;9.13;;;7.50;99.90;;;;;;5110737;28;20079;-75
2022/11/17 09:02:11;;;;;;;8.15;5.25;;;7.10;99.90;;;;;;5102423;28;20047;-72
2022/11/17 09:04:36;;;;;;;10.77;7.90;;;7.10;99.90;;;;;;5101631;28;20046;-75
2022/11/17 09:07:02;;;;;;;6.75;3.40;;;7.10;99.90;;;;;;5084712;27;20130;-79
2022/11/17 09:09:30;;;;;;;9.40;7.13;;;7.20;99.90;;;;;;5092009;27;20093;-74
2022/11/17 09:11:56;;;;;;;10.15;7.28;;;7.20;99.90;;;;;;5108375;27;20094;-75
2022/11/17 09:14:22;;;;;;;7.05;3.10;;;7.20;99.90;;;;;;5094806;27;20123;-73
2022/11/17 09:16:48;;;;;;;7.18;5.07;;;7.30;99.90;;;;;;5094983;28;20130;-74
2022/11/17 09:19:16;;;;;;;8.55;6.43;;;7.30;99.90;;;;;;5107719;27;20077;-72
2022/11/17 09:21:42;;;;;;;6.38;3.38;;;7.20;99.90;;;;;;5095116;28;20051;-74
2022/11/17 09:24:08;;;;;;;6.38;3.15;;;7.20;99.90;;;;;;5091412;28;20049;-76
2022/11/17 09:26:34;;;;;;;9.73;5.75;;;7.20;99.90;;;;;;5114884;27;20069;-74
2022/11/17 09:29:03;;;;;;;8.32;5.18;;;7.30;99.90;;;;;;5115631;27;20082;-76
2022/11/17 09:31:29;;;;;;;7.97;5.80;;;7.20;99.90;;;;;;5100790;28;20039;-75
2022/11/17 09:33:55;;;;;;;6.75;4.03;;;7.20;99.90;;;;;;5114601;28;20049;-73
2022/11/17 09:36:21;;;;;;;8.55;6.18;;;7.20;99.90;;;;;;5107824;27;20104;-72
2022/11/17 09:38:47;;;;;;;6.55;4.15;;;7.30;99.90;;;;;;5112835;27;20046;-76
2022/11/17 09:41:40;;;;;;;7.93;5.82;;;7.30;99.90;;;;;;5095216;28;20083;-73
2022/11/17 09:44:25;;;;;;;7.93;5.20;;;7.20;99.90;;;;;;5101367;28;20471;-73
2022/11/17 09:46:58;;;;;;;7.03;4.95;;;7.30;99.90;;;;;;5094595;28;20480;-75
2022/11/17 09:49:23;;;;;;;8.13;6.07;;;7.30;99.90;;;;;;5105503;28;20129;-72
2022/11/17 09:51:50;;;;;;;7.28;4.78;;;7.20;99.90;;;;;;5114651;27;20181;-72
2022/11/17 09:54:31;;;;;;;7.43;5.65;;;7.30;99.90;;;;;;5100655;27;20126;-75
2022/11/17 09:56:58;;;;;;;8.63;6.38;;;7.20;99.90;;;;;;5115401;28;20517;-73
2022/11/17 09:59:26;;;;;;;6.97;4.80;;;7.30;99.90;;;;;;5094169;27;20135;-76
2022/11/17 10:01:52;;;;;;;6.72;4.40;;;7.30;99.90;;;;;;5087109;28;20134;-74
2022/11/17 10:04:18;;;;;;;9.10;6.65;;;7.30;99.90;;;;;;5095501;27;20127;-78
2022/11/17 10:06:47;;;;;;;7.22;5.30;;;7.30;99.90;;;;;;5102064;28;20055;-75
2022/11/17 10:09:32;;;;;;;7.38;4.82;;;7.30;99.90;;;;;;5116708;27;20075;-75
2022/11/17 10:12:12;;;;;;;7.32;4.97;;;7.30;99.90;;;;;;5090363;27;20047;-79
2022/11/17 10:14:41;;;;;;;7.25;5.28;;;7.40;99.90;;;;;;5119027;27;20051;-73
2022/11/17 10:17:08;;;;;;;8.27;6.22;;;7.30;99.90;;;;;;5118906;27;20043;-75
2022/11/17 10:19:39;;;;;;;7.57;5.30;;;7.30;99.90;;;;;;5117633;27;20124;-73
2022/11/17 10:22:15;;;;;;;8.20;5.97;;;7.30;99.90;;;;;;5098605;28;20055;-77
2022/11/17 10:24:46;;;;;;;5.68;3.38;;;7.30;99.90;;;;;;5099016;27;20648;-80
2022/11/17 10:27:18;;;;;;;7.03;4.13;;;7.30;99.90;;;;;;5108651;28;20043;-74
2022/11/17 10:30:03;;;;;;;5.50;2.78;;;7.30;99.90;;;;;;5130417;27;20067;-71
2022/11/17 10:32:51;;;;;;;8.10;5.30;;;7.40;99.90;;;;;;5110471;27;20054;-73
2022/11/17 10:35:23;;;;;;;7.40;4.78;;;7.30;99.90;;;;;;5104777;27;20039;-74
2022/11/17 10:38:02;;;;;;;7.25;5.10;;;7.40;99.90;;;;;;5105125;28;20069;-74
2022/11/17 10:40:49;;;;;;;7.10;2.83;;;7.40;99.90;;;;;;5106338;27;20488;-71
2022/11/17 10:43:16;;;;;;;7.22;4.53;;;7.40;99.90;;;;;;5086998;27;20516;-69
2022/11/17 10:45:45;;;;;;;7.00;5.30;;;7.40;99.90;;;;;;5110100;28;20055;-76
2022/11/17 10:48:30;;;;;;;7.07;4.75;;;7.30;99.90;;;;;;5096569;27;20071;-73
2022/11/17 10:50:56;;;;;;;7.15;4.47;;;7.40;99.90;;;;;;5091167;27;20046;-75
2022/11/17 10:53:28;;;;;;;9.25;6.63;;;7.40;99.90;;;;;;5109281;28;20365;-72
2022/11/17 10:56:03;;;;;;;9.48;5.82;;;7.30;99.90;;;;;;5103618;27;20039;-74
2022/11/17 10:58:31;;;;;;;7.35;5.13;;;7.30;99.90;;;;;;5118148;27;20043;-78
2022/11/17 11:01:00;;;;;;;5.97;3.67;;;7.30;99.90;;;;;;5103480;27;20053;-72
2022/11/17 11:03:31;;;;;;;7.75;5.45;;;7.40;99.90;;;;;;5117463;27;20038;-75
2022/11/17 11:05:57;;;;;;;8.32;6.10;;;7.40;99.90;;;;;;5117940;27;20046;-75
2022/11/17 11:08:26;;;;;;;7.10;4.75;;;7.40;99.90;;;;;;5104109;27;20482;-78
2022/11/17 11:10:54;;;;;;;6.57;4.60;;;7.40;99.90;;;;;;5101166;27;20043;-72
2022/11/17 11:14:09;;;;;;;9.20;6.00;;;7.40;99.90;;;;;;5098262;28;20035;-78
2022/11/17 11:16:35;;;;;;;7.15;5.03;;;7.50;99.90;;;;;;5075341;28;20044;-72
2022/11/17 11:19:01;;;;;;;6.95;4.85;;;7.50;99.90;;;;;;5109226;27;20047;-72
2022/11/17 11:22:09;;;;;;;9.13;5.70;;;7.50;99.90;;;;;;5111363;28;20068;-76
2022/11/17 11:24:50;;;;;;;6.68;5.00;;;7.50;99.90;;;;;;5096858;27;20051;-79
2022/11/17 11:27:24;;;;;;;8.63;5.65;;;7.50;99.90;;;;;;5106904;28;20047;-76
2022/11/17 11:30:02;;;;;;;8.00;6.07;;;7.50;99.90;;;;;;5111090;28;20039;-74
2022/11/17 11:33:16;;;;;;;7.97;5.93;;;7.60;99.90;;;;;;5108946;27;20079;-77
2022/11/17 11:36:00;;;;;;;4.18;2.45;;;7.60;99.90;;;;;;5089397;28;20059;-73
2022/11/17 11:39:03;;;;;;;5.15;2.53;;;7.70;99.90;;;;;;5104190;27;20051;-75
2022/11/17 11:41:51;;;;;;;4.40;2.15;;;7.70;99.90;;;;;;5101192;28;20135;-73
2022/11/17 11:44:56;;;;;;;6.30;3.75;;;7.80;99.90;;;;;;5097140;28;20043;-75
2022/11/17 11:47:49;;;;;;;7.97;5.57;;;7.70;99.90;;;;;;5091362;28;20138;-75
2022/11/17 11:50:25;;;;;;;7.65;5.53;;;7.70;99.90;;;;;;5099833;27;20043;-75
2022/11/17 11:53:15;;;;;;;8.48;6.20;;;7.70;99.90;;;;;;5100294;27;20035;-76
2022/11/17 11:55:43;;;;;;;8.07;5.57;;;7.70;99.90;;;;;;5113965;28;20051;-76
2022/11/17 11:58:24;;;;;;;8.82;7.05;;;7.20;99.90;;;;;;5086116;27;20126;-74
2022/11/17 12:00:59;;;;;;;9.95;7.72;;;7.80;99.90;;;;;;5113034;27;20088;-76
2022/11/17 12:03:34;;;;;;;8.77;6.90;;;7.80;99.90;;;;;;5079290;28;20043;-75
2022/11/17 12:06:40;;;;;;;9.25;7.22;;;7.80;99.90;;;;;;5097152;27;20586;-73
2022/11/17 12:09:35;;;;;;;10.40;8.20;;;7.80;99.90;;;;;;5104478;28;20040;-76
2022/11/17 12:12:07;;;;;;;9.57;6.45;;;7.90;99.90;;;;;;5093824;28;20134;-73
2022/11/17 12:14:35;;;;;;;10.57;7.63;;;7.90;99.90;;;;;;5111256;27;20127;-77
2022/11/17 12:17:04;;;;;;;9.40;7.25;;;7.90;99.90;;;;;;5088875;28;20044;-69
2022/11/17 12:19:58;;;;;;;10.70;7.90;;;8.00;99.90;;;;;;5111871;27;20056;-74
2022/11/17 12:22:31;;;;;;;9.68;7.03;;;8.00;99.90;;;;;;5096403;28;20363;-72
2022/11/17 12:25:13;;;;;;;10.27;8.02;;;8.10;99.90;;;;;;5101792;27;20055;-74
2022/11/17 12:27:40;;;;;;;10.73;8.32;;;8.10;99.90;;;;;;5113429;28;20530;-72
2022/11/17 12:30:32;;;;;;;8.85;7.07;;;8.10;99.90;;;;;;5096245;28;20509;-73
2022/11/17 12:33:03;;;;;;;10.50;7.93;;;8.10;99.90;;;;;;5095518;27;20437;-72
2022/11/17 12:35:34;;;;;;;8.55;6.28;;;8.20;99.90;;;;;;5116741;27;20099;-72
2022/11/17 12:38:15;;;;;;;10.20;6.30;;;8.30;99.90;;;;;;5098984;27;20402;-73
2022/11/17 12:40:42;;;;;;;8.93;7.43;;;8.30;99.90;;;;;;5107193;28;20377;-74
2022/11/17 12:43:13;;;;;;;7.22;4.05;;;8.40;99.90;;;;;;5109746;27;20129;-72
2022/11/17 12:45:51;;;;;;;9.70;6.50;;;8.50;99.90;;;;;;5100916;28;20051;-76
2022/11/17 12:48:19;;;;;;;7.32;5.40;;;8.50;99.90;;;;;;5126572;27;20074;-72
2022/11/17 12:51:20;;;;;;;8.70;6.00;;;8.50;99.90;;;;;;5096015;28;20055;-74
2022/11/17 12:54:05;;;;;;;8.20;5.93;;;8.60;99.90;;;;;;5078716;28;20051;-76
2022/11/17 12:56:53;;;;;;;7.53;5.32;;;8.60;99.90;;;;;;5095737;28;20084;-76
2022/11/17 12:59:53;;;;;;;7.68;4.88;;;8.70;99.90;;;;;;5109260;27;20056;-76
2022/11/17 13:02:40;;;;;;;7.97;5.90;;;8.70;99.90;;;;;;5103070;28;20105;-76
2022/11/17 13:05:16;;;;;;;7.75;5.60;;;8.70;99.90;;;;;;5094826;28;20058;-75
2022/11/17 13:07:42;;;;;;;9.20;6.55;;;8.70;99.90;;;;;;5110087;27;20078;-72
2022/11/17 13:10:43;;;;;;;9.15;6.80;;;8.60;99.90;;;;;;5115456;27;20486;-75
2022/11/17 13:13:11;;;;;;;8.45;5.93;;;8.60;99.90;;;;;;5015814;28;20436;-75
2022/11/17 13:15:37;;;;;;;8.63;5.85;;;8.60;99.90;;;;;;5082978;28;20048;-78
2022/11/17 13:18:17;;;;;;;8.52;5.22;;;8.80;99.90;;;;;;5109472;28;20040;-73
2022/11/17 13:20:47;;;;;;;10.65;7.00;;;8.70;99.90;;;;;;5098852;27;20387;-80
2022/11/17 13:23:21;;;;;;;7.72;5.93;;;8.70;99.90;;;;;;5098290;28;20571;-74
2022/11/17 13:25:48;;;;;;;9.63;6.65;;;8.60;99.90;;;;;;5086457;28;20051;-72
2022/11/17 13:28:29;;;;;;;8.77;7.07;;;8.70;99.90;;;;;;5099345;27;20039;-74
2022/11/17 13:30:55;;;;;;;9.43;7.63;;;8.60;99.90;;;;;;5095370;28;20074;-72
2022/11/17 13:33:23;;;;;;;8.55;7.18;;;8.60;99.90;;;;;;5109308;28;20483;-74